San Guillermo — XCAR9 — position and weather

sailwx.info

Track history (hours):
 
Tides and Currents Weather Stations Pressure Air Temp Water Temp Dewpoint Dewpoint Depression Visibility Wind Speed Wind Dir Waves Ship Positions

San Guillermo

Last reported at 2018-Jan-20 01:08 UTC. Time now 2018-Jan-20 03:46 UTC.
Position N 24°23' W 110°18'.

Length 116 m; draft 4.5 m.

Type: Cargo ship. MMSI: 345040013.

Date/timePositionNaut miles runAvg speedWind from/ knotsBaromVisibWave heightAir tempDewpointWater temp
2018-Jan-20 01:08N 24°23' W 110°18'213.0
2018-Jan-20 00:58N 24°21' W 110°20'613.1
2018-Jan-20 00:30N 24°15' W 110°21'2 2.9
2018-Jan-19 23:58N 24°17' W 110°20'0 0.0
2018-Jan-19 23:29N 24°17' W 110°20'0 0.0
2018-Jan-19 22:58N 24°17' W 110°20'0 0.0
2018-Jan-19 22:28N 24°17' W 110°20'0 0.0
2018-Jan-19 21:58N 24°17' W 110°20'0 0.0
2018-Jan-19 21:27N 24°17' W 110°20'0 0.0
2018-Jan-19 20:53N 24°17' W 110°20'0 0.0
2018-Jan-19 20:28N 24°17' W 110°20'0 0.0
2018-Jan-19 19:58N 24°17' W 110°20'0 0.0
2018-Jan-19 19:26N 24°17' W 110°20'0 0.0
2018-Jan-19 18:58N 24°17' W 110°20'0 0.0
2018-Jan-19 18:28N 24°17' W 110°20'0 0.0
2018-Jan-19 17:56N 24°17' W 110°20'0 0.0
2018-Jan-19 17:28N 24°17' W 110°20'0 0.0
2018-Jan-19 16:58N 24°17' W 110°20'0 0.0
2018-Jan-19 16:28N 24°17' W 110°20'0 0.0
2018-Jan-19 15:58N 24°17' W 110°20'0 0.0
2018-Jan-19 15:28N 24°17' W 110°20'0 0.0
2018-Jan-19 14:59N 24°17' W 110°20'2 3.8
2018-Jan-19 14:29N 24°18' W 110°22'8 0.2
2018-Jan-18 05:28N 24°24' W 110°16'612.4
2018-Jan-18 04:59N 24°20' W 110°21'4 9.4
2018-Jan-18 04:30N 24°16' W 110°20'1 1.7
2018-Jan-18 03:58N 24°17' W 110°20'0 0.0
2018-Jan-18 03:28N 24°17' W 110°20'0 0.0
2018-Jan-18 02:58N 24°17' W 110°20'0 0.0
2018-Jan-18 02:28N 24°17' W 110°20'0 0.0
2018-Jan-18 01:58N 24°17' W 110°20'0 0.0
2018-Jan-18 01:28N 24°17' W 110°20'0 0.0
2018-Jan-18 00:58N 24°17' W 110°20'0 0.0
2018-Jan-17 23:58N 24°17' W 110°20'0 0.0
2018-Jan-17 23:55N 24°17' W 110°20'  
2018-Jan-11 06:03N 24°24' W 110°16'312.8
2018-Jan-11 05:50N 24°22' W 110°19'413.2
2018-Jan-11 05:30N 24°19' W 110°22'3 5.4
2018-Jan-11 04:59N 24°17' W 110°20'0 0.0
2018-Jan-11 04:29N 24°17' W 110°20'0 0.0
2018-Jan-11 03:59N 24°17' W 110°20'0 0.0
2018-Jan-11 03:30N 24°17' W 110°20'0 0.0
2018-Jan-11 02:58N 24°17' W 110°20'0 0.0
2018-Jan-11 02:29N 24°17' W 110°20'0 0.0
2018-Jan-11 01:59N 24°17' W 110°20'0 0.0
2018-Jan-11 01:30N 24°17' W 110°20'0 0.0
2018-Jan-11 00:59N 24°17' W 110°20'0 0.0
2018-Jan-11 00:29N 24°17' W 110°20'0 0.0
2018-Jan-10 23:59N 24°17' W 110°20'0 0.0
2018-Jan-10 23:30N 24°17' W 110°20'0 0.0
2018-Jan-10 22:59N 24°17' W 110°20'0 0.0
2018-Jan-10 22:31N 24°17' W 110°20'0 0.0
2018-Jan-10 22:00N 24°17' W 110°20'0 0.0
2018-Jan-10 21:29N 24°17' W 110°20'0 0.0
2018-Jan-10 20:59N 24°17' W 110°20'0 0.0
2018-Jan-10 20:30N 24°17' W 110°20'0 0.0
2018-Jan-10 20:00N 24°17' W 110°20'0 0.0
2018-Jan-10 19:30N 24°17' W 110°20'0 0.0
2018-Jan-10 19:00N 24°17' W 110°20'0 0.0
2018-Jan-10 18:29N 24°17' W 110°20'0 0.0
2018-Jan-10 17:58N 24°17' W 110°20'0 0.0
2018-Jan-10 17:30N 24°17' W 110°20'0 0.1
2018-Jan-10 17:00N 24°17' W 110°20'2 3.3
2018-Jan-10 16:29N 24°15' W 110°20'712.7
2018-Jan-10 15:58N 24°21' W 110°20'  
Track history (hours):
 
Tides and Currents Weather Stations Pressure Air Temp Water Temp Dewpoint Dewpoint Depression Visibility Wind Speed Wind Dir Waves Ship Positions

San Guillermo

Last reported at 2018-Jan-20 01:08 UTC. Time now 2018-Jan-20 03:46 UTC.
Position N 24°23' W 110°18'.

Length 116 m; draft 4.5 m.

Type: Cargo ship. MMSI: 345040013.

Date/timePositionNaut miles runAvg speedWind from/ knotsBaromVisibWave heightAir tempDewpointWater temp
2018-Jan-20 01:08N 24°23' W 110°18'213.0
2018-Jan-20 00:58N 24°21' W 110°20'613.1
2018-Jan-20 00:30N 24°15' W 110°21'2 2.9
2018-Jan-19 23:58N 24°17' W 110°20'0 0.0
2018-Jan-19 23:29N 24°17' W 110°20'0 0.0
2018-Jan-19 22:58N 24°17' W 110°20'0 0.0
2018-Jan-19 22:28N 24°17' W 110°20'0 0.0
2018-Jan-19 21:58N 24°17' W 110°20'0 0.0
2018-Jan-19 21:27N 24°17' W 110°20'0 0.0
2018-Jan-19 20:53N 24°17' W 110°20'0 0.0
2018-Jan-19 20:28N 24°17' W 110°20'0 0.0
2018-Jan-19 19:58N 24°17' W 110°20'0 0.0
2018-Jan-19 19:26N 24°17' W 110°20'0 0.0
2018-Jan-19 18:58N 24°17' W 110°20'0 0.0
2018-Jan-19 18:28N 24°17' W 110°20'0 0.0
2018-Jan-19 17:56N 24°17' W 110°20'0 0.0
2018-Jan-19 17:28N 24°17' W 110°20'0 0.0
2018-Jan-19 16:58N 24°17' W 110°20'0 0.0
2018-Jan-19 16:28N 24°17' W 110°20'0 0.0
2018-Jan-19 15:58N 24°17' W 110°20'0 0.0
2018-Jan-19 15:28N 24°17' W 110°20'0 0.0
2018-Jan-19 14:59N 24°17' W 110°20'2 3.8
2018-Jan-19 14:29N 24°18' W 110°22'8 0.2
2018-Jan-18 05:28N 24°24' W 110°16'612.4
2018-Jan-18 04:59N 24°20' W 110°21'4 9.4
2018-Jan-18 04:30N 24°16' W 110°20'1 1.7
2018-Jan-18 03:58N 24°17' W 110°20'0 0.0
2018-Jan-18 03:28N 24°17' W 110°20'0 0.0
2018-Jan-18 02:58N 24°17' W 110°20'0 0.0
2018-Jan-18 02:28N 24°17' W 110°20'0 0.0
2018-Jan-18 01:58N 24°17' W 110°20'0 0.0
2018-Jan-18 01:28N 24°17' W 110°20'0 0.0
2018-Jan-18 00:58N 24°17' W 110°20'0 0.0
2018-Jan-17 23:58N 24°17' W 110°20'0 0.0
2018-Jan-17 23:55N 24°17' W 110°20'  
2018-Jan-11 06:03N 24°24' W 110°16'312.8
2018-Jan-11 05:50N 24°22' W 110°19'413.2
2018-Jan-11 05:30N 24°19' W 110°22'3 5.4
2018-Jan-11 04:59N 24°17' W 110°20'0 0.0
2018-Jan-11 04:29N 24°17' W 110°20'0 0.0
2018-Jan-11 03:59N 24°17' W 110°20'0 0.0
2018-Jan-11 03:30N 24°17' W 110°20'0 0.0
2018-Jan-11 02:58N 24°17' W 110°20'0 0.0
2018-Jan-11 02:29N 24°17' W 110°20'0 0.0
2018-Jan-11 01:59N 24°17' W 110°20'0 0.0
2018-Jan-11 01:30N 24°17' W 110°20'0 0.0
2018-Jan-11 00:59N 24°17' W 110°20'0 0.0
2018-Jan-11 00:29N 24°17' W 110°20'0 0.0
2018-Jan-10 23:59N 24°17' W 110°20'0 0.0
2018-Jan-10 23:30N 24°17' W 110°20'0 0.0
2018-Jan-10 22:59N 24°17' W 110°20'0 0.0
2018-Jan-10 22:31N 24°17' W 110°20'0 0.0
2018-Jan-10 22:00N 24°17' W 110°20'0 0.0
2018-Jan-10 21:29N 24°17' W 110°20'0 0.0
2018-Jan-10 20:59N 24°17' W 110°20'0 0.0
2018-Jan-10 20:30N 24°17' W 110°20'0 0.0
2018-Jan-10 20:00N 24°17' W 110°20'0 0.0
2018-Jan-10 19:30N 24°17' W 110°20'0 0.0
2018-Jan-10 19:00N 24°17' W 110°20'0 0.0
2018-Jan-10 18:29N 24°17' W 110°20'0 0.0
2018-Jan-10 17:58N 24°17' W 110°20'0 0.0
2018-Jan-10 17:30N 24°17' W 110°20'0 0.1
2018-Jan-10 17:00N 24°17' W 110°20'2 3.3
2018-Jan-10 16:29N 24°15' W 110°20'712.7
2018-Jan-10 15:58N 24°21' W 110°20'  

Dump ship's entire track history